Time;durP1;ratioP1;P1;durP2;ratioP2;P2;SDS_P1;SDS_P2;PMS_P1;PMS_P2;Temp;Humidity;BMP_temperature;BMP_pressure;BME280_temperature;BME280_humidity;BME280_pressure;Samples;Min_cycle;Max_cycle;Signal;HPM_P1;HPM_P2
2022/05/01 00:01:11;;;;;;;13.38;7.00;;;;;;;;;;5013215;28;20030;-65
2022/05/01 00:03:36;;;;;;;13.13;6.97;;;;;;;;;;5013309;28;20104;-65
2022/05/01 00:06:07;;;;;;;19.20;7.38;;;;;;;;;;5013367;28;20029;-64
2022/05/01 00:08:34;;;;;;;14.35;7.30;;;;;;;;;;5013249;28;20200;-65
2022/05/01 00:11:00;;;;;;;14.68;7.45;;;;;;;;;;5012888;28;20109;-65
2022/05/01 00:13:26;;;;;;;14.70;7.22;;;;;;;;;;5013085;28;20097;-65
2022/05/01 00:15:52;;;;;;;13.23;7.22;;;;;;;;;;5013160;28;20478;-65
2022/05/01 00:18:18;;;;;;;15.38;6.70;;;;;;;;;;5013012;28;20538;-65
2022/05/01 00:20:45;;;;;;;10.25;6.50;;;;;;;;;;5012863;28;20042;-65
2022/05/01 00:23:10;;;;;;;14.98;6.80;;;;;;;;;;5012693;28;20433;-65
2022/05/01 00:25:38;;;;;;;10.23;6.05;;;;;;;;;;5012769;28;20045;-65
2022/05/01 00:28:04;;;;;;;10.98;6.38;;;;;;;;;;5012754;28;20502;-65
2022/05/01 00:30:30;;;;;;;13.02;6.30;;;;;;;;;;5012905;28;20120;-65
2022/05/01 00:38:27;;;;;;;14.52;6.47;;;;;;;;;;5013090;28;20065;-65
2022/05/01 00:40:52;;;;;;;11.95;6.50;;;;;;;;;;5011474;28;20432;-65
2022/05/01 00:43:18;;;;;;;12.27;6.97;;;;;;;;;;5012760;28;20118;-65
2022/05/01 00:45:43;;;;;;;13.73;6.38;;;;;;;;;;5012686;28;20546;-65
2022/05/01 00:48:09;;;;;;;14.05;6.20;;;;;;;;;;5012878;28;20464;-65
2022/05/01 00:50:35;;;;;;;9.43;6.10;;;;;;;;;;5011465;28;20072;-64
2022/05/01 00:53:04;;;;;;;11.07;6.03;;;;;;;;;;5012597;28;20406;-65
2022/05/01 00:55:31;;;;;;;11.63;5.93;;;;;;;;;;5012682;28;20048;-65
2022/05/01 00:57:56;;;;;;;12.02;5.90;;;;;;;;;;5012733;28;20045;-64
2022/05/01 01:00:22;;;;;;;11.75;5.68;;;;;;;;;;5012614;28;20101;-65
2022/05/01 01:02:48;;;;;;;11.90;5.97;;;;;;;;;;5012746;28;20100;-65
2022/05/01 01:05:14;;;;;;;12.77;6.03;;;;;;;;;;5012736;28;20454;-65
2022/05/01 01:07:40;;;;;;;8.73;5.80;;;;;;;;;;5012509;28;20069;-65
2022/05/01 01:10:06;;;;;;;14.93;5.70;;;;;;;;;;5012494;28;20037;-65
2022/05/01 01:15:16;;;;;;;11.15;5.88;;;;;;;;;;5012564;28;20068;-65
2022/05/01 01:17:43;;;;;;;12.75;5.72;;;;;;;;;;5012480;28;20426;-65
2022/05/01 01:20:12;;;;;;;12.82;5.18;;;;;;;;;;5012249;28;20026;-65
2022/05/01 01:22:39;;;;;;;11.38;5.38;;;;;;;;;;5012027;28;20037;-65
2022/05/01 01:25:08;;;;;;;14.48;5.68;;;;;;;;;;5012447;28;20080;-65
2022/05/01 01:27:34;;;;;;;10.05;5.80;;;;;;;;;;5012339;28;20064;-64
2022/05/01 01:32:47;;;;;;;10.90;5.88;;;;;;;;;;5012747;28;20490;-65
2022/05/01 01:35:14;;;;;;;9.65;5.75;;;;;;;;;;5012424;28;20026;-65
2022/05/01 01:37:44;;;;;;;10.93;5.28;;;;;;;;;;5010516;28;20463;-65
2022/05/01 01:40:13;;;;;;;9.05;5.60;;;;;;;;;;5012144;28;20468;-65
2022/05/01 01:42:40;;;;;;;11.77;5.60;;;;;;;;;;5015859;28;20034;-65
2022/05/01 01:45:09;;;;;;;9.60;5.78;;;;;;;;;;5015667;28;20040;-65
2022/05/01 01:47:34;;;;;;;13.70;5.80;;;;;;;;;;5015645;28;20037;-65
2022/05/01 01:49:59;;;;;;;20.95;7.03;;;;;;;;;;5015840;28;20030;-64
2022/05/01 01:52:25;;;;;;;16.63;8.48;;;;;;;;;;5015433;28;20029;-65
2022/05/01 01:54:51;;;;;;;13.82;6.70;;;;;;;;;;5015703;28;20028;-65
2022/05/01 01:57:16;;;;;;;15.43;7.13;;;;;;;;;;5015644;28;20022;-65
2022/05/01 01:59:42;;;;;;;15.48;6.82;;;;;;;;;;5015509;28;20018;-65
2022/05/01 02:02:08;;;;;;;21.50;7.18;;;;;;;;;;5015391;28;20058;-65
2022/05/01 02:04:34;;;;;;;13.43;5.80;;;;;;;;;;5015541;28;20049;-65
2022/05/01 02:07:00;;;;;;;11.18;7.10;;;;;;;;;;5015192;28;20022;-65
2022/05/01 02:09:25;;;;;;;13.88;6.75;;;;;;;;;;5015228;28;20525;-65
2022/05/01 02:11:52;;;;;;;14.75;6.72;;;;;;;;;;5015305;28;20088;-65
2022/05/01 02:14:18;;;;;;;10.75;6.20;;;;;;;;;;5015200;28;20030;-65
2022/05/01 02:16:44;;;;;;;11.55;6.40;;;;;;;;;;5015296;28;20033;-65
2022/05/01 02:19:09;;;;;;;12.02;6.90;;;;;;;;;;5015152;28;20033;-65
2022/05/01 02:21:35;;;;;;;18.25;9.80;;;;;;;;;;5014790;28;20092;-65
2022/05/01 02:24:05;;;;;;;22.13;11.63;;;;;;;;;;5014914;28;20029;-65
2022/05/01 02:26:31;;;;;;;20.45;8.77;;;;;;;;;;5014957;28;20030;-65
2022/05/01 02:29:02;;;;;;;11.70;7.20;;;;;;;;;;5014976;28;20030;-65
2022/05/01 02:31:27;;;;;;;15.43;8.38;;;;;;;;;;5014979;28;20172;-66
2022/05/01 02:33:54;;;;;;;16.05;9.48;;;;;;;;;;5015008;28;20105;-65
2022/05/01 02:36:20;;;;;;;19.65;8.45;;;;;;;;;;5014471;28;20466;-65
2022/05/01 02:38:46;;;;;;;14.32;7.43;;;;;;;;;;5014882;28;20061;-65
2022/05/01 02:41:12;;;;;;;16.60;7.68;;;;;;;;;;5014659;28;20139;-65
2022/05/01 02:43:38;;;;;;;14.40;7.45;;;;;;;;;;5014792;28;20101;-65
2022/05/01 02:46:03;;;;;;;12.80;7.40;;;;;;;;;;5014752;28;20076;-64
2022/05/01 02:48:29;;;;;;;14.15;7.47;;;;;;;;;;5014705;28;20030;-66
2022/05/01 02:50:55;;;;;;;13.65;7.43;;;;;;;;;;5014340;28;20483;-65
2022/05/01 02:53:20;;;;;;;18.02;7.20;;;;;;;;;;5014381;28;20038;-66
2022/05/01 02:55:46;;;;;;;14.45;6.57;;;;;;;;;;5014625;28;20029;-65
2022/05/01 02:58:11;;;;;;;17.55;7.35;;;;;;;;;;5014376;28;20065;-65
2022/05/01 03:00:37;;;;;;;17.67;8.32;;;;;;;;;;5014389;28;20022;-66
2022/05/01 03:03:03;;;;;;;12.05;7.90;;;;;;;;;;5013039;28;20036;-64
2022/05/01 03:05:28;;;;;;;19.20;8.35;;;;;;;;;;5014251;28;20026;-64
2022/05/01 03:07:55;;;;;;;18.85;8.13;;;;;;;;;;5014318;28;20022;-63
2022/05/01 03:10:22;;;;;;;14.10;6.65;;;;;;;;;;5014116;28;20372;-64
2022/05/01 03:12:48;;;;;;;15.45;6.50;;;;;;;;;;5014165;28;20531;-64
2022/05/01 03:15:13;;;;;;;12.35;6.70;;;;;;;;;;5014136;28;20164;-64
2022/05/01 03:23:07;;;;;;;10.82;5.97;;;;;;;;;;5013826;28;20100;-64
2022/05/01 03:25:33;;;;;;;10.10;5.68;;;;;;;;;;5013982;28;20034;-63
2022/05/01 03:27:59;;;;;;;13.07;6.13;;;;;;;;;;5013999;28;20018;-64
2022/05/01 03:30:25;;;;;;;12.15;5.70;;;;;;;;;;5013895;28;20459;-63
2022/05/01 03:32:51;;;;;;;13.40;6.10;;;;;;;;;;5013692;28;20041;-63
2022/05/01 03:35:18;;;;;;;9.65;5.88;;;;;;;;;;5013758;28;20112;-65
2022/05/01 03:37:44;;;;;;;12.70;5.47;;;;;;;;;;5012370;28;20050;-65
2022/05/01 03:40:11;;;;;;;9.35;4.95;;;;;;;;;;5013705;28;20030;-64
2022/05/01 03:42:37;;;;;;;9.38;5.45;;;;;;;;;;5013752;28;20057;-65
2022/05/01 03:45:03;;;;;;;8.32;4.88;;;;;;;;;;5013687;28;20029;-65
2022/05/01 03:47:28;;;;;;;15.55;5.20;;;;;;;;;;5013144;28;20422;-65
2022/05/01 03:49:53;;;;;;;11.65;5.20;;;;;;;;;;5013570;28;20030;-64
2022/05/01 03:52:19;;;;;;;12.30;5.38;;;;;;;;;;5013533;28;20093;-66
2022/05/01 03:54:45;;;;;;;10.63;4.88;;;;;;;;;;5013506;28;20030;-65
2022/05/01 03:57:11;;;;;;;10.40;4.82;;;;;;;;;;5013361;28;20037;-65
2022/05/01 03:59:36;;;;;;;9.55;5.18;;;;;;;;;;5013287;28;20018;-64
2022/05/01 04:02:02;;;;;;;11.35;5.22;;;;;;;;;;5013097;28;20053;-65
2022/05/01 04:04:27;;;;;;;10.70;5.38;;;;;;;;;;5012753;28;20053;-65
2022/05/01 04:06:53;;;;;;;12.90;5.28;;;;;;;;;;5013261;28;20076;-65
2022/05/01 04:09:21;;;;;;;15.30;5.30;;;;;;;;;;5013144;28;20033;-64
2022/05/01 04:11:46;;;;;;;10.75;5.30;;;;;;;;;;5013117;28;20391;-65
2022/05/01 04:14:12;;;;;;;9.90;4.75;;;;;;;;;;5013181;28;20028;-64
2022/05/01 04:16:37;;;;;;;10.63;5.88;;;;;;;;;;5012957;28;20105;-64
2022/05/01 04:19:03;;;;;;;15.18;5.95;;;;;;;;;;5012966;28;20026;-64
2022/05/01 04:21:28;;;;;;;11.43;5.88;;;;;;;;;;5012918;28;20033;-64
2022/05/01 04:23:55;;;;;;;10.85;5.55;;;;;;;;;;5012873;28;20056;-64
2022/05/01 04:26:20;;;;;;;12.05;5.72;;;;;;;;;;5012942;28;20112;-65
2022/05/01 04:31:30;;;;;;;8.75;6.07;;;;;;;;;;5012801;28;20084;-64
2022/05/01 04:33:56;;;;;;;10.25;6.10;;;;;;;;;;5013064;28;20442;-65
2022/05/01 04:36:21;;;;;;;13.40;6.35;;;;;;;;;;5012622;28;20077;-64
2022/05/01 04:38:47;;;;;;;13.40;6.82;;;;;;;;;;5012860;28;20034;-65
2022/05/01 04:41:17;;;;;;;12.68;5.70;;;;;;;;;;5012860;28;20181;-64
2022/05/01 04:43:43;;;;;;;12.20;5.05;;;;;;;;;;5012934;28;20026;-64
2022/05/01 04:46:08;;;;;;;11.93;5.00;;;;;;;;;;5012483;28;20036;-64
2022/05/01 04:48:34;;;;;;;14.93;5.75;;;;;;;;;;5012810;28;20030;-65
2022/05/01 04:51:00;;;;;;;16.35;5.82;;;;;;;;;;5012733;28;20061;-64
2022/05/01 04:53:26;;;;;;;13.63;6.35;;;;;;;;;;5012728;28;20022;-64
2022/05/01 04:55:54;;;;;;;18.52;6.18;;;;;;;;;;5012769;28;20403;-65
2022/05/01 04:58:20;;;;;;;10.88;6.00;;;;;;;;;;5012707;28;20022;-64
2022/05/01 05:00:46;;;;;;;10.93;6.15;;;;;;;;;;5012489;28;20091;-64
2022/05/01 05:03:12;;;;;;;9.90;5.70;;;;;;;;;;5012661;28;20033;-65
2022/05/01 05:05:38;;;;;;;11.15;5.90;;;;;;;;;;5012580;28;20074;-65
2022/05/01 05:10:49;;;;;;;10.70;5.00;;;;;;;;;;5012864;28;20438;-64
2022/05/01 05:13:20;;;;;;;8.40;4.97;;;;;;;;;;5012722;28;20026;-65
2022/05/01 05:15:47;;;;;;;8.23;4.70;;;;;;;;;;5014871;28;20034;-65
2022/05/01 05:18:13;;;;;;;6.25;4.13;;;;;;;;;;5016305;28;20033;-65
2022/05/01 05:20:38;;;;;;;5.93;4.20;;;;;;;;;;5016124;28;20026;-65
2022/05/01 05:23:04;;;;;;;7.32;4.25;;;;;;;;;;5015908;28;20064;-66
2022/05/01 05:25:29;;;;;;;7.28;4.07;;;;;;;;;;5016326;28;20026;-65
2022/05/01 05:27:55;;;;;;;8.95;3.90;;;;;;;;;;5016340;28;20029;-65
2022/05/01 05:30:21;;;;;;;9.63;4.55;;;;;;;;;;5015694;28;20084;-65
2022/05/01 05:32:46;;;;;;;9.82;4.18;;;;;;;;;;5016075;28;20030;-64
2022/05/01 05:35:12;;;;;;;12.07;4.43;;;;;;;;;;5016031;28;20029;-63
2022/05/01 05:37:37;;;;;;;16.58;4.72;;;;;;;;;;5015747;28;20042;-63
2022/05/01 05:40:03;;;;;;;7.60;4.53;;;;;;;;;;5016010;28;20598;-64
2022/05/01 05:42:29;;;;;;;12.32;4.97;;;;;;;;;;5015788;28;20037;-64
2022/05/01 05:44:55;;;;;;;7.43;4.93;;;;;;;;;;5015560;28;20379;-64
2022/05/01 05:47:20;;;;;;;8.82;4.90;;;;;;;;;;5015786;28;20026;-64
2022/05/01 05:49:47;;;;;;;10.43;5.07;;;;;;;;;;5015678;28;20021;-63
2022/05/01 05:52:12;;;;;;;9.27;4.95;;;;;;;;;;5015458;28;20037;-63
2022/05/01 05:54:39;;;;;;;8.13;3.90;;;;;;;;;;5015478;28;20022;-64
2022/05/01 05:57:04;;;;;;;7.03;4.43;;;;;;;;;;5015604;28;20042;-63
2022/05/01 05:59:30;;;;;;;13.32;5.55;;;;;;;;;;5013870;28;20068;-64
2022/05/01 06:01:55;;;;;;;8.70;3.47;;;;;;;;;;5015474;28;20025;-63
2022/05/01 06:04:21;;;;;;;7.00;3.25;;;;;;;;;;5015542;28;20384;-64
2022/05/01 06:06:46;;;;;;;7.82;3.80;;;;;;;;;;5015436;28;20503;-63
2022/05/01 06:09:12;;;;;;;8.27;3.28;;;;;;;;;;5015375;28;20050;-63
2022/05/01 06:11:38;;;;;;;6.05;3.10;;;;;;;;;;5015354;28;20021;-63
2022/05/01 06:14:03;;;;;;;7.30;3.15;;;;;;;;;;5015199;28;20026;-64
2022/05/01 06:16:31;;;;;;;5.30;2.92;;;;;;;;;;5015321;28;20025;-64
2022/05/01 06:18:58;;;;;;;5.45;2.65;;;;;;;;;;5015171;28;20032;-63
2022/05/01 06:21:24;;;;;;;6.20;2.80;;;;;;;;;;5014963;28;20105;-64
2022/05/01 06:23:50;;;;;;;5.07;2.80;;;;;;;;;;5015038;28;20454;-64
2022/05/01 06:26:15;;;;;;;4.30;2.90;;;;;;;;;;5014411;28;20105;-63
2022/05/01 06:28:41;;;;;;;3.72;2.50;;;;;;;;;;5014872;28;20030;-63
2022/05/01 06:31:07;;;;;;;6.85;2.85;;;;;;;;;;5015037;28;20464;-63
2022/05/01 06:33:35;;;;;;;5.88;2.70;;;;;;;;;;5014836;28;20378;-64
2022/05/01 06:36:01;;;;;;;5.70;2.63;;;;;;;;;;5014732;28;20034;-64
2022/05/01 06:38:28;;;;;;;5.72;2.95;;;;;;;;;;5014904;28;20171;-64
2022/05/01 06:40:53;;;;;;;5.68;3.13;;;;;;;;;;5014842;28;20422;-65
2022/05/01 06:43:19;;;;;;;5.47;2.92;;;;;;;;;;5014536;28;20037;-64
2022/05/01 06:45:46;;;;;;;7.03;2.97;;;;;;;;;;5014784;28;20403;-65
2022/05/01 06:48:12;;;;;;;5.90;2.80;;;;;;;;;;5013317;28;20030;-64
2022/05/01 06:50:38;;;;;;;4.93;2.35;;;;;;;;;;5014665;28;20040;-64
2022/05/01 06:53:05;;;;;;;5.88;2.60;;;;;;;;;;5014538;28;20033;-66
2022/05/01 06:55:31;;;;;;;5.90;1.92;;;;;;;;;;5014280;28;20030;-64
2022/05/01 06:57:57;;;;;;;8.77;2.50;;;;;;;;;;5014451;28;20030;-65
2022/05/01 07:00:23;;;;;;;2.45;1.60;;;;;;;;;;5014271;28;20519;-65
2022/05/01 07:02:53;;;;;;;3.35;1.80;;;;;;;;;;5014338;28;20025;-65
2022/05/01 07:05:20;;;;;;;4.90;2.25;;;;;;;;;;5014428;28;20026;-64
2022/05/01 07:07:47;;;;;;;3.30;1.92;;;;;;;;;;5014273;28;20030;-64
2022/05/01 07:10:13;;;;;;;4.05;1.88;;;;;;;;;;5013947;28;20022;-65
2022/05/01 07:12:38;;;;;;;3.88;1.80;;;;;;;;;;5014199;28;20033;-66
2022/05/01 07:15:05;;;;;;;4.07;1.80;;;;;;;;;;5014205;28;20030;-66
2022/05/01 07:17:31;;;;;;;5.43;2.50;;;;;;;;;;5012909;28;20367;-64
2022/05/01 07:19:57;;;;;;;4.50;1.95;;;;;;;;;;5013744;28;20018;-64
2022/05/01 07:22:22;;;;;;;5.90;2.13;;;;;;;;;;5013612;28;20033;-64
2022/05/01 07:24:48;;;;;;;6.47;2.20;;;;;;;;;;5013815;28;20037;-63
2022/05/01 07:27:13;;;;;;;6.10;2.40;;;;;;;;;;5014006;28;20533;-65
2022/05/01 07:29:39;;;;;;;5.75;2.20;;;;;;;;;;5013842;28;20026;-65
2022/05/01 07:32:04;;;;;;;4.43;2.10;;;;;;;;;;5013913;28;20041;-66
2022/05/01 07:34:30;;;;;;;4.82;2.35;;;;;;;;;;5013845;28;20029;-66
2022/05/01 07:36:56;;;;;;;4.60;1.90;;;;;;;;;;5013569;28;20507;-65
2022/05/01 07:39:21;;;;;;;4.55;2.60;;;;;;;;;;5012393;28;20022;-65
2022/05/01 07:41:47;;;;;;;3.58;1.70;;;;;;;;;;5013629;28;20038;-65
2022/05/01 07:44:12;;;;;;;4.32;2.20;;;;;;;;;;5013782;28;20038;-65
2022/05/01 07:46:39;;;;;;;7.65;1.90;;;;;;;;;;5013732;28;20037;-66
2022/05/01 07:49:05;;;;;;;3.17;2.00;;;;;;;;;;5013482;28;20034;-63
2022/05/01 07:51:31;;;;;;;3.92;1.67;;;;;;;;;;5013292;28;20040;-64
2022/05/01 07:53:58;;;;;;;3.78;1.60;;;;;;;;;;5013378;28;20026;-65
2022/05/01 07:56:25;;;;;;;7.15;1.60;;;;;;;;;;5013317;28;20475;-65
2022/05/01 07:58:50;;;;;;;3.15;1.80;;;;;;;;;;5013402;28;20096;-65
2022/05/01 08:01:16;;;;;;;5.03;2.00;;;;;;;;;;5013120;28;20426;-65
2022/05/01 08:06:25;;;;;;;4.35;2.08;;;;;;;;;;5013371;28;20028;-65
2022/05/01 08:08:51;;;;;;;5.05;1.95;;;;;;;;;;5012977;28;20394;-65
2022/05/01 08:11:16;;;;;;;3.42;2.00;;;;;;;;;;5013198;28;20443;-65
2022/05/01 08:13:42;;;;;;;4.70;1.90;;;;;;;;;;5013267;28;20029;-65
2022/05/01 08:16:07;;;;;;;3.33;2.00;;;;;;;;;;5013155;28;20487;-65
2022/05/01 08:21:17;;;;;;;5.70;2.30;;;;;;;;;;5013204;28;20084;-65
2022/05/01 08:23:42;;;;;;;4.25;1.90;;;;;;;;;;5012775;28;20030;-65
2022/05/01 08:26:10;;;;;;;4.28;2.10;;;;;;;;;;5013097;28;20021;-66
2022/05/01 08:28:40;;;;;;;5.75;2.33;;;;;;;;;;5013134;28;20132;-65
2022/05/01 08:31:07;;;;;;;4.43;2.10;;;;;;;;;;5013111;28;20034;-65
2022/05/01 08:33:33;;;;;;;5.80;2.53;;;;;;;;;;5011765;28;20044;-65
2022/05/01 08:36:02;;;;;;;3.88;2.22;;;;;;;;;;5012932;28;20064;-65
2022/05/01 08:38:28;;;;;;;5.40;2.47;;;;;;;;;;5012696;28;20038;-65
2022/05/01 08:40:53;;;;;;;3.95;2.35;;;;;;;;;;5012810;28;20034;-66
2022/05/01 08:43:21;;;;;;;4.82;2.17;;;;;;;;;;5012758;28;20479;-64
2022/05/01 08:45:52;;;;;;;8.50;2.70;;;;;;;;;;5012924;28;20125;-64
2022/05/01 08:48:40;;;;;;;3.55;2.08;;;;;;;;;;5012819;28;20067;-64
2022/05/01 08:51:07;;;;;;;6.07;2.47;;;;;;;;;;5016182;28;20036;-65
2022/05/01 08:53:36;;;;;;;6.10;2.30;;;;;;;;;;5016609;28;20108;-65
2022/05/01 08:56:04;;;;;;;4.95;2.40;;;;;;;;;;5016946;28;20536;-64
2022/05/01 08:58:31;;;;;;;3.67;2.22;;;;;;;;;;5016755;28;20041;-65
2022/05/01 09:00:58;;;;;;;6.72;2.75;;;;;;;;;;5016801;28;20487;-65
2022/05/01 09:03:24;;;;;;;7.85;2.58;;;;;;;;;;5016790;28;20041;-65
2022/05/01 09:05:50;;;;;;;5.30;2.85;;;;;;;;;;5016497;28;20052;-65
2022/05/01 09:08:16;;;;;;;4.60;2.67;;;;;;;;;;5016356;28;20026;-64
2022/05/01 09:10:44;;;;;;;6.22;3.85;;;;;;;;;;5016528;28;20463;-65
2022/05/01 09:13:10;;;;;;;12.10;4.30;;;;;;;;;;5016602;28;20468;-65
2022/05/01 09:15:43;;;;;;;10.02;5.18;;;;;;;;;;5016553;28;20121;-65
2022/05/01 09:18:10;;;;;;;11.98;5.07;;;;;;;;;;5016432;28;20028;-66
2022/05/01 09:20:39;;;;;;;13.15;5.82;;;;;;;;;;5016010;28;20048;-65
2022/05/01 09:23:06;;;;;;;8.43;5.07;;;;;;;;;;5015963;28;20438;-66
2022/05/01 09:25:33;;;;;;;10.05;4.10;;;;;;;;;;5016330;28;20037;-65
2022/05/01 09:28:01;;;;;;;10.23;4.97;;;;;;;;;;5016394;28;20022;-65
2022/05/01 09:30:35;;;;;;;9.13;4.13;;;;;;;;;;5016226;28;20472;-65
2022/05/01 09:33:02;;;;;;;8.75;5.15;;;;;;;;;;5016257;28;20022;-65
2022/05/01 09:35:33;;;;;;;10.32;4.63;;;;;;;;;;5015866;28;20439;-65
2022/05/01 09:38:18;;;;;;;8.85;5.00;;;;;;;;;;5015913;28;20058;-65
2022/05/01 09:40:47;;;;;;;11.02;4.93;;;;;;;;;;5016110;28;20082;-64
2022/05/01 09:43:34;;;;;;;9.35;4.18;;;;;;;;;;5015866;28;20037;-63
2022/05/01 09:46:19;;;;;;;13.18;5.10;;;;;;;;;;5016022;28;20088;-64
2022/05/01 09:49:03;;;;;;;10.02;4.70;;;;;;;;;;5015766;28;20431;-64
2022/05/01 09:51:31;;;;;;;9.55;5.18;;;;;;;;;;5015416;28;20093;-62
2022/05/01 09:53:58;;;;;;;6.30;4.13;;;;;;;;;;5015829;28;20101;-66
2022/05/01 09:56:24;;;;;;;7.82;4.20;;;;;;;;;;5015751;28;20380;-65
2022/05/01 09:59:00;;;;;;;5.60;3.70;;;;;;;;;;5015661;28;20022;-64
2022/05/01 10:01:27;;;;;;;5.93;3.50;;;;;;;;;;5014229;28;20435;-64
2022/05/01 10:03:53;;;;;;;7.32;3.92;;;;;;;;;;5015669;28;20036;-65
2022/05/01 10:06:20;;;;;;;9.32;4.25;;;;;;;;;;5015363;28;20022;-64
2022/05/01 10:08:47;;;;;;;8.52;3.75;;;;;;;;;;5015485;28;20446;-65
2022/05/01 10:11:17;;;;;;;9.55;4.75;;;;;;;;;;5015585;28;20033;-65
2022/05/01 10:13:44;;;;;;;7.78;4.50;;;;;;;;;;5015448;28;20050;-65
2022/05/01 10:16:11;;;;;;;6.93;3.55;;;;;;;;;;5015420;28;20030;-63
2022/05/01 10:18:38;;;;;;;8.77;4.00;;;;;;;;;;5015065;28;20443;-62
2022/05/01 10:21:06;;;;;;;7.72;4.43;;;;;;;;;;5015100;28;20068;-62
2022/05/01 10:23:33;;;;;;;11.45;4.97;;;;;;;;;;5015066;28;20045;-63
2022/05/01 10:26:09;;;;;;;10.38;6.50;;;;;;;;;;5013941;28;20519;-64
2022/05/01 10:28:56;;;;;;;13.82;5.93;;;;;;;;;;5015104;28;20479;-63
2022/05/01 10:35:21;;;;;;;11.13;6.20;;;;;;;;;;5015011;28;20065;-64
2022/05/01 10:38:07;;;;;;;12.38;5.95;;;;;;;;;;4993082;28;20054;-63
2022/05/01 10:40:37;;;;;;;10.95;5.60;;;;;;;;;;4993323;28;20037;-65
2022/05/01 10:43:21;;;;;;;10.65;5.80;;;;;;;;;;4993007;28;20082;-65
2022/05/01 10:45:47;;;;;;;10.65;6.57;;;;;;;;;;4993057;28;20034;-64
2022/05/01 10:48:15;;;;;;;11.88;6.30;;;;;;;;;;4992940;28;20045;-63
2022/05/01 10:50:41;;;;;;;10.05;5.45;;;;;;;;;;4992954;28;20500;-63
2022/05/01 10:53:16;;;;;;;9.85;5.13;;;;;;;;;;4993047;28;20038;-65
2022/05/01 10:56:22;;;;;;;11.95;7.05;;;;;;;;;;4992890;28;20037;-64
2022/05/01 10:58:47;;;;;;;13.63;7.07;;;;;;;;;;4992636;28;20034;-65
2022/05/01 11:01:13;;;;;;;13.55;6.80;;;;;;;;;;4992496;28;20110;-64
2022/05/01 11:03:50;;;;;;;13.82;7.05;;;;;;;;;;4992511;28;20030;-64
2022/05/01 11:06:20;;;;;;;16.13;7.60;;;;;;;;;;4992764;28;20030;-65
2022/05/01 11:08:46;;;;;;;16.27;7.50;;;;;;;;;;5005337;28;20406;-65
2022/05/01 11:11:13;;;;;;;13.85;6.68;;;;;;;;;;5014282;28;20177;-64
2022/05/01 11:13:41;;;;;;;16.42;8.75;;;;;;;;;;5014028;28;20030;-64
2022/05/01 11:16:08;;;;;;;13.63;6.50;;;;;;;;;;5014194;28;20032;-64
2022/05/01 11:18:34;;;;;;;13.18;6.80;;;;;;;;;;5014103;28;20034;-63
2022/05/01 11:21:19;;;;;;;11.25;6.05;;;;;;;;;;5014024;28;20036;-63
2022/05/01 11:23:45;;;;;;;14.23;7.18;;;;;;;;;;5013831;28;20041;-64
2022/05/01 11:26:13;;;;;;;11.07;7.70;;;;;;;;;;5014063;28;20548;-64
2022/05/01 11:28:55;;;;;;;14.35;7.20;;;;;;;;;;5013905;28;20030;-63
2022/05/01 11:31:44;;;;;;;12.30;6.47;;;;;;;;;;5013817;28;20360;-63
2022/05/01 11:34:16;;;;;;;11.90;7.22;;;;;;;;;;5011050;28;20044;-63
2022/05/01 11:37:01;;;;;;;12.48;6.32;;;;;;;;;;5013592;28;20050;-63
2022/05/01 11:39:45;;;;;;;12.77;6.35;;;;;;;;;;5013611;28;20049;-63
2022/05/01 11:42:26;;;;;;;10.93;6.22;;;;;;;;;;5013546;28;20101;-64
2022/05/01 11:44:57;;;;;;;11.85;6.28;;;;;;;;;;5013821;28;20042;-62
2022/05/01 11:47:24;;;;;;;14.10;7.43;;;;;;;;;;5013589;28;20033;-63
2022/05/01 11:49:52;;;;;;;12.48;5.30;;;;;;;;;;5013594;28;20474;-63
2022/05/01 11:52:19;;;;;;;8.65;4.72;;;;;;;;;;5013584;28;20036;-63
2022/05/01 11:54:54;;;;;;;7.55;4.15;;;;;;;;;;5013655;28;20030;-63
2022/05/01 12:03:04;;;;;;;10.32;4.30;;;;;;;;;;5013442;28;20040;-62
2022/05/01 12:05:50;;;;;;;5.85;3.42;;;;;;;;;;5013504;28;20114;-64
2022/05/01 12:08:20;;;;;;;8.45;3.10;;;;;;;;;;5013067;28;20046;-64
2022/05/01 12:10:46;;;;;;;12.20;7.57;;;;;;;;;;5013233;28;20030;-64
2022/05/01 12:13:28;;;;;;;6.38;2.60;;;;;;;;;;5013295;28;20099;-63
2022/05/01 12:15:53;;;;;;;9.07;3.00;;;;;;;;;;5013106;28;20021;-63
2022/05/01 12:18:20;;;;;;;6.03;3.45;;;;;;;;;;5013017;28;20029;-63
2022/05/01 12:20:46;;;;;;;7.15;2.70;;;;;;;;;;5013113;28;20117;-64
2022/05/01 12:23:20;;;;;;;5.25;2.35;;;;;;;;;;5013306;28;20157;-63
2022/05/01 12:25:50;;;;;;;6.50;2.40;;;;;;;;;;5012670;28;20113;-64
2022/05/01 12:28:18;;;;;;;7.47;2.45;;;;;;;;;;5013076;28;20068;-63
2022/05/01 12:30:45;;;;;;;5.90;2.42;;;;;;;;;;5012903;28;20256;-64
2022/05/01 12:33:19;;;;;;;5.72;2.50;;;;;;;;;;5013236;28;20022;-64
2022/05/01 12:35:55;;;;;;;5.95;2.47;;;;;;;;;;5012907;28;20041;-64
2022/05/01 12:38:21;;;;;;;5.65;3.00;;;;;;;;;;5012746;28;20056;-64
2022/05/01 12:46:32;;;;;;;5.32;2.40;;;;;;;;;;5013048;28;20041;-64
2022/05/01 12:49:02;;;;;;;7.95;2.80;;;;;;;;;;5012860;28;20052;-64
2022/05/01 12:51:54;;;;;;;5.53;3.20;;;;;;;;;;5013008;28;20061;-64
2022/05/01 12:54:20;;;;;;;11.82;4.53;;;;;;;;;;5011700;28;20438;-64
2022/05/01 12:56:46;;;;;;;10.57;4.00;;;;;;;;;;5012902;28;20018;-63
2022/05/01 12:59:24;;;;;;;12.45;3.05;;;;;;;;;;5012586;28;20037;-64
2022/05/01 13:01:49;;;;;;;12.27;3.13;;;;;;;;;;5012701;28;20033;-65
2022/05/01 13:04:26;;;;;;;5.80;2.50;;;;;;;;;;5012899;28;20076;-64
2022/05/01 13:06:52;;;;;;;6.60;2.53;;;;;;;;;;5012785;28;20025;-64
2022/05/01 13:09:18;;;;;;;7.53;3.13;;;;;;;;;;5012617;28;20030;-65
2022/05/01 13:12:04;;;;;;;8.55;3.42;;;;;;;;;;5012690;28;20475;-64
2022/05/01 13:14:33;;;;;;;6.20;3.55;;;;;;;;;;5012633;28;20022;-65
2022/05/01 13:17:28;;;;;;;6.22;3.75;;;;;;;;;;5012742;28;20156;-64
2022/05/01 13:19:54;;;;;;;8.50;4.35;;;;;;;;;;5011835;28;20041;-65
2022/05/01 13:22:21;;;;;;;16.95;8.45;;;;;;;;;;5012312;28;20041;-63
2022/05/01 13:24:52;;;;;;;11.90;5.25;;;;;;;;;;5012616;28;20033;-64
2022/05/01 13:27:19;;;;;;;14.15;4.60;;;;;;;;;;5012425;28;20026;-64
2022/05/01 13:29:44;;;;;;;14.23;5.22;;;;;;;;;;5012435;28;20125;-64
2022/05/01 13:32:11;;;;;;;9.57;3.85;;;;;;;;;;5012638;28;20514;-65
2022/05/01 13:34:41;;;;;;;11.75;3.97;;;;;;;;;;5012529;28;20032;-64
2022/05/01 13:37:08;;;;;;;;;;;;;;;;;;5015686;28;20045;-64
2022/05/01 13:45:02;;;;;;;9.18;5.25;;;;;;;;;;5016160;28;20464;-64
2022/05/01 13:47:28;;;;;;;13.15;5.28;;;;;;;;;;5016138;28;20049;-63
2022/05/01 13:49:55;;;;;;;9.80;5.75;;;;;;;;;;5015941;28;20026;-64
2022/05/01 13:52:21;;;;;;;10.48;5.03;;;;;;;;;;5015988;28;20527;-64
2022/05/01 13:54:48;;;;;;;9.35;5.10;;;;;;;;;;5015694;28;20161;-64
2022/05/01 13:57:14;;;;;;;8.18;5.07;;;;;;;;;;5015487;28;20045;-64
2022/05/01 13:59:39;;;;;;;10.95;5.05;;;;;;;;;;5015600;28;20065;-63
2022/05/01 14:02:06;;;;;;;10.60;5.38;;;;;;;;;;5015614;28;20484;-64
2022/05/01 14:04:32;;;;;;;10.05;5.75;;;;;;;;;;5015792;28;20168;-64
2022/05/01 14:06:57;;;;;;;8.25;5.40;;;;;;;;;;5015747;28;20105;-64
2022/05/01 14:09:23;;;;;;;10.50;5.30;;;;;;;;;;5015592;28;20108;-63
2022/05/01 14:11:54;;;;;;;9.43;4.82;;;;;;;;;;5015078;28;20599;-64
2022/05/01 14:14:20;;;;;;;10.57;4.40;;;;;;;;;;5015518;28;20033;-64
2022/05/01 14:16:47;;;;;;;6.60;4.15;;;;;;;;;;5015385;28;20026;-64
2022/05/01 14:19:18;;;;;;;7.85;4.07;;;;;;;;;;5015434;28;20113;-63
2022/05/01 14:21:46;;;;;;;8.77;4.15;;;;;;;;;;5015149;28;20037;-64
2022/05/01 14:24:12;;;;;;;7.75;4.40;;;;;;;;;;5015181;28;20072;-64
2022/05/01 14:26:37;;;;;;;7.47;4.55;;;;;;;;;;5015109;28;20034;-64
2022/05/01 14:29:03;;;;;;;7.03;3.97;;;;;;;;;;5015118;28;20042;-64
2022/05/01 14:31:37;;;;;;;6.07;3.65;;;;;;;;;;5015165;28;20121;-64
2022/05/01 14:34:09;;;;;;;4.80;3.47;;;;;;;;;;5015140;28;20056;-64
2022/05/01 14:36:43;;;;;;;8.18;3.75;;;;;;;;;;5014968;28;20046;-64
2022/05/01 14:39:10;;;;;;;5.07;3.05;;;;;;;;;;5014929;28;20034;-64
2022/05/01 14:41:44;;;;;;;6.72;3.42;;;;;;;;;;5014596;28;20032;-64
2022/05/01 14:44:12;;;;;;;10.60;3.80;;;;;;;;;;5014895;28;20018;-64
2022/05/01 14:46:58;;;;;;;5.00;3.33;;;;;;;;;;5014835;28;20459;-64
2022/05/01 14:49:42;;;;;;;7.63;3.35;;;;;;;;;;5014614;28;20411;-64
2022/05/01 14:52:10;;;;;;;9.73;4.00;;;;;;;;;;5014891;28;20032;-62
2022/05/01 14:54:39;;;;;;;9.07;4.85;;;;;;;;;;5014627;28;20107;-65
2022/05/01 14:57:12;;;;;;;6.65;3.95;;;;;;;;;;5014607;28;20029;-65
2022/05/01 15:08:14;;;;;;;5.50;2.92;;;;;;;;;;5014579;28;20032;-64
2022/05/01 15:10:43;;;;;;;5.43;3.10;;;;;;;;;;5014249;28;20037;-65
2022/05/01 15:13:13;;;;;;;5.70;3.60;;;;;;;;;;5014227;28;20034;-65
2022/05/01 15:16:05;;;;;;;4.55;2.83;;;;;;;;;;5014341;28;20045;-65
2022/05/01 15:18:48;;;;;;;4.93;3.17;;;;;;;;;;5014359;28;20034;-66
2022/05/01 15:24:20;;;;;;;6.47;3.58;;;;;;;;;;5013883;28;20041;-65
2022/05/01 15:26:49;;;;;;;5.95;3.50;;;;;;;;;;5014272;28;20022;-65
2022/05/01 15:29:25;;;;;;;9.93;2.92;;;;;;;;;;5014006;28;20026;-65
2022/05/01 15:31:52;;;;;;;5.60;2.80;;;;;;;;;;5014188;28;20030;-65
2022/05/01 15:34:20;;;;;;;5.57;2.83;;;;;;;;;;5013947;28;20062;-65
2022/05/01 15:36:47;;;;;;;5.90;2.80;;;;;;;;;;5013862;28;20430;-66
2022/05/01 15:39:19;;;;;;;6.30;2.85;;;;;;;;;;5013673;28;20036;-65
2022/05/01 15:41:53;;;;;;;6.53;3.08;;;;;;;;;;5013847;28;20033;-63